Time;durP1;ratioP1;P1;durP2;ratioP2;P2;SDS_P1;SDS_P2;PMS_P1;PMS_P2;Temp;Humidity;BMP_temperature;BMP_pressure;BME280_temperature;BME280_humidity;BME280_pressure;Samples;Min_cycle;Max_cycle;Signal;HPM_P1;HPM_P2
2022/09/15 00:01:09;;;;;;;12.50;4.60;;;15.80;1.00;;;;;;6074559;23;20405;-79
2022/09/15 00:03:39;;;;;;;11.20;4.23;;;15.80;1.00;;;;;;6080344;23;20420;-81
2022/09/15 00:06:10;;;;;;;11.07;4.50;;;15.70;1.00;;;;;;6083911;23;20409;-80
2022/09/15 00:08:40;;;;;;;10.97;4.83;;;15.70;1.00;;;;;;6082109;23;20522;-81
2022/09/15 00:11:18;;;;;;;9.70;4.90;;;15.70;1.00;;;;;;6083399;23;20419;-79
2022/09/15 00:13:50;;;;;;;11.20;5.10;;;15.70;1.00;;;;;;6081542;23;20450;-78
2022/09/15 00:16:22;;;;;;;11.80;4.97;;;15.70;1.00;;;;;;6071385;23;20477;-77
2022/09/15 00:18:51;;;;;;;11.17;4.70;;;15.60;1.00;;;;;;6080620;23;20381;-81
2022/09/15 00:21:22;;;;;;;10.40;3.90;;;15.60;1.00;;;;;;6085332;23;20477;-81
2022/09/15 00:23:50;;;;;;;9.53;4.23;;;15.50;1.00;;;;;;6080926;23;20444;-77
2022/09/15 00:26:25;;;;;;;13.63;4.70;;;15.50;1.00;;;;;;6080518;23;20465;-82
2022/09/15 00:28:57;;;;;;;10.53;3.93;;;15.40;1.00;;;;;;6066670;23;20433;-79
2022/09/15 00:31:30;;;;;;;14.60;4.57;;;15.40;1.00;;;;;;6080512;23;20971;-80
2022/09/15 00:34:03;;;;;;;10.60;4.50;;;15.40;1.00;;;;;;6084950;23;20402;-78
2022/09/15 00:36:34;;;;;;;7.93;4.13;;;15.40;1.00;;;;;;6069877;23;20425;-78
2022/09/15 00:39:02;;;;;;;10.80;4.17;;;15.30;1.00;;;;;;6045649;23;20449;-79
2022/09/15 00:41:31;;;;;;;11.80;4.60;;;15.30;1.00;;;;;;6049535;23;20461;-79
2022/09/15 00:44:22;;;;;;;14.10;4.33;;;15.30;1.00;;;;;;6058289;23;20422;-79
2022/09/15 00:46:53;;;;;;;10.27;3.93;;;15.20;1.00;;;;;;6066806;23;20548;-79
2022/09/15 00:49:33;;;;;;;9.50;4.30;;;15.20;1.00;;;;;;6066447;23;20457;-80
2022/09/15 00:52:09;;;;;;;11.60;4.13;;;15.20;1.00;;;;;;6063050;23;20417;-78
2022/09/15 00:54:46;;;;;;;10.77;4.70;;;15.20;1.00;;;;;;6053069;23;20417;-79
2022/09/15 00:57:22;;;;;;;10.63;4.53;;;15.10;1.00;;;;;;6070378;23;20436;-79
2022/09/15 00:59:55;;;;;;;9.20;4.60;;;15.10;1.00;;;;;;6082149;23;20425;-78
2022/09/15 01:02:26;;;;;;;12.10;4.30;;;15.00;1.00;;;;;;6061795;23;21013;-78
2022/09/15 01:05:04;;;;;;;10.77;5.20;;;14.90;1.00;;;;;;6049409;23;20972;-78
2022/09/15 01:07:35;;;;;;;10.40;4.90;;;14.90;1.00;;;;;;6074933;23;20529;-78
2022/09/15 01:10:06;;;;;;;10.30;4.67;;;14.90;1.00;;;;;;6076722;23;20925;-80
2022/09/15 01:12:39;;;;;;;12.50;4.60;;;14.90;1.00;;;;;;6061321;23;20493;-78
2022/09/15 01:15:06;;;;;;;12.10;5.03;;;14.90;1.00;;;;;;6075153;23;20876;-79
2022/09/15 01:17:48;;;;;;;14.40;4.73;;;14.80;1.00;;;;;;6061348;23;20417;-79
2022/09/15 01:20:59;;;;;;;12.17;4.97;;;14.80;1.00;;;;;;6058628;23;20394;-78
2022/09/15 01:24:13;;;;;;;10.60;4.57;;;14.70;1.00;;;;;;6039117;23;20403;-78
2022/09/15 01:27:12;;;;;;;9.70;4.97;;;14.70;1.00;;;;;;6078674;23;20432;-79
2022/09/15 01:30:20;;;;;;;12.07;5.03;;;14.70;1.00;;;;;;6062547;23;20396;-80
2022/09/15 01:33:30;;;;;;;10.20;5.37;;;14.60;1.00;;;;;;6070696;23;20448;-79
2022/09/15 01:36:13;;;;;;;10.77;5.00;;;14.50;1.00;;;;;;6068978;23;20442;-81
2022/09/15 01:39:02;;;;;;;11.63;4.43;;;14.60;1.00;;;;;;6066041;23;20479;-81
2022/09/15 01:41:42;;;;;;;10.57;4.73;;;14.50;1.00;;;;;;6063327;23;20586;-81
2022/09/15 01:44:22;;;;;;;10.80;4.50;;;14.50;1.00;;;;;;6068918;23;20772;-79
2022/09/15 01:47:09;;;;;;;10.10;4.70;;;14.50;1.00;;;;;;6065429;23;20459;-81
2022/09/15 01:52:42;;;;;;;10.63;4.50;;;14.40;1.00;;;;;;6025926;23;20930;-79
2022/09/15 01:55:20;;;;;;;11.10;5.03;;;14.40;1.00;;;;;;6066857;23;20445;-82
2022/09/15 01:57:51;;;;;;;15.30;4.90;;;14.50;1.00;;;;;;6068874;23;20435;-78
2022/09/15 02:00:22;;;;;;;13.70;5.10;;;14.40;1.00;;;;;;6081990;23;20382;-80
2022/09/15 02:02:58;;;;;;;11.53;4.60;;;14.40;1.00;;;;;;6080444;23;20421;-81
2022/09/15 02:05:32;;;;;;;11.80;4.80;;;14.40;1.00;;;;;;6062052;23;20409;-80
2022/09/15 02:08:07;;;;;;;12.37;5.33;;;14.40;1.00;;;;;;6080313;23;20577;-77
2022/09/15 02:10:42;;;;;;;12.70;5.87;;;14.40;1.00;;;;;;6081611;23;20890;-81
2022/09/15 02:13:18;;;;;;;13.33;4.70;;;14.40;1.00;;;;;;6080115;23;20424;-79
2022/09/15 02:15:52;;;;;;;13.73;5.87;;;14.50;1.00;;;;;;6063248;23;20389;-77
2022/09/15 02:18:33;;;;;;;10.20;4.67;;;14.40;1.00;;;;;;6077915;23;20488;-80
2022/09/15 02:21:09;;;;;;;12.13;4.60;;;14.40;1.00;;;;;;6063064;23;20545;-80
2022/09/15 02:23:47;;;;;;;13.10;5.27;;;14.40;1.00;;;;;;6074624;23;20389;-77
2022/09/15 02:26:20;;;;;;;14.80;5.90;;;14.40;1.00;;;;;;6078952;23;20425;-78
2022/09/15 02:28:49;;;;;;;10.30;5.00;;;14.40;1.00;;;;;;6057648;23;20425;-78
2022/09/15 02:31:22;;;;;;;10.90;4.80;;;14.50;1.00;;;;;;6060794;23;20397;-78
2022/09/15 02:34:01;;;;;;;16.00;5.33;;;14.60;1.00;;;;;;6064552;23;20525;-78
2022/09/15 02:36:30;;;;;;;14.57;4.47;;;14.60;1.00;;;;;;6036587;23;20456;-79
2022/09/15 02:39:05;;;;;;;13.93;5.97;;;14.60;1.00;;;;;;6053375;23;20429;-79
2022/09/15 02:41:41;;;;;;;9.63;4.50;;;14.60;1.00;;;;;;6048898;23;20989;-79
2022/09/15 02:44:20;;;;;;;13.13;3.70;;;14.60;1.00;;;;;;6064551;23;20423;-78
2022/09/15 02:46:51;;;;;;;15.67;5.20;;;14.50;1.00;;;;;;6058091;23;20429;-81
2022/09/15 02:49:22;;;;;;;12.13;5.57;;;14.50;1.00;;;;;;6073457;23;20393;-81
2022/09/15 02:51:49;;;;;;;12.67;5.90;;;14.40;1.00;;;;;;6078135;23;20524;-79
2022/09/15 02:54:21;;;;;;;13.00;5.23;;;14.40;1.00;;;;;;6054915;23;20394;-81
2022/09/15 02:56:49;;;;;;;12.63;5.47;;;14.30;1.00;;;;;;6074613;23;20433;-81
2022/09/15 02:59:17;;;;;;;11.73;4.83;;;14.30;1.00;;;;;;6074818;23;20456;-81
2022/09/15 03:01:44;;;;;;;9.83;4.80;;;14.30;1.00;;;;;;6060159;23;20417;-81
2022/09/15 03:04:11;;;;;;;9.57;4.30;;;14.30;1.00;;;;;;6076150;23;21012;-80
2022/09/15 03:06:39;;;;;;;11.60;5.67;;;14.30;1.00;;;;;;6072969;23;22437;-81
2022/09/15 03:09:07;;;;;;;12.70;5.73;;;14.30;1.00;;;;;;6075117;23;20402;-82
2022/09/15 03:11:35;;;;;;;14.70;5.70;;;14.30;1.00;;;;;;6074213;23;20445;-81
2022/09/15 03:14:04;;;;;;;11.90;5.03;;;14.20;1.00;;;;;;6075915;23;20481;-82
2022/09/15 03:16:34;;;;;;;13.70;5.30;;;14.20;1.00;;;;;;6074007;23;20508;-82
2022/09/15 03:19:02;;;;;;;13.00;5.47;;;14.20;1.00;;;;;;6074530;23;20413;-82
2022/09/15 03:21:29;;;;;;;11.57;5.27;;;14.20;1.00;;;;;;6077038;23;20445;-81
2022/09/15 03:23:58;;;;;;;13.27;5.70;;;14.10;1.00;;;;;;6077921;23;20405;-78
2022/09/15 03:26:32;;;;;;;15.00;5.67;;;14.00;1.00;;;;;;6077178;23;20479;-79
2022/09/15 03:28:59;;;;;;;12.90;5.87;;;14.00;1.00;;;;;;6076828;23;20451;-80
2022/09/15 03:31:30;;;;;;;12.73;6.00;;;14.00;1.00;;;;;;6067900;23;20453;-81
2022/09/15 03:34:00;;;;;;;12.90;5.17;;;14.00;1.00;;;;;;6076038;23;20429;-79
2022/09/15 03:36:27;;;;;;;10.33;5.53;;;14.00;1.00;;;;;;6078413;23;20436;-78
2022/09/15 03:39:00;;;;;;;11.47;5.20;;;14.00;1.00;;;;;;6080601;23;20437;-79
2022/09/15 03:41:28;;;;;;;11.50;5.20;;;14.00;1.00;;;;;;6026380;23;20495;-81
2022/09/15 03:44:00;;;;;;;15.13;5.80;;;14.00;1.00;;;;;;6078337;23;20409;-82
2022/09/15 03:46:28;;;;;;;13.30;6.10;;;14.00;1.00;;;;;;6060100;23;20448;-85
2022/09/15 03:49:04;;;;;;;12.10;6.13;;;13.90;1.00;;;;;;6065616;23;20517;-83
2022/09/15 03:51:31;;;;;;;13.47;6.60;;;13.90;1.00;;;;;;6047872;23;20474;-84
2022/09/15 03:54:03;;;;;;;12.63;6.57;;;13.80;1.00;;;;;;6047715;23;20437;-83
2022/09/15 03:56:31;;;;;;;12.87;7.50;;;13.90;1.00;;;;;;6051950;23;20512;-84
2022/09/15 03:59:02;;;;;;;14.63;6.30;;;13.80;1.00;;;;;;6051921;23;20437;-82
2022/09/15 04:01:30;;;;;;;12.87;6.43;;;13.80;1.00;;;;;;6022170;23;20445;-84
2022/09/15 04:04:01;;;;;;;12.93;6.37;;;13.80;1.00;;;;;;6049255;23;21165;-80
2022/09/15 04:06:35;;;;;;;15.07;7.10;;;13.80;1.00;;;;;;6050373;23;20386;-79
2022/09/15 04:09:09;;;;;;;12.43;5.97;;;13.80;1.00;;;;;;6051426;23;20446;-77
2022/09/15 04:11:42;;;;;;;13.97;6.60;;;13.80;1.00;;;;;;6039489;23;20433;-80
2022/09/15 04:14:12;;;;;;;14.83;6.63;;;13.70;1.00;;;;;;6068460;23;20430;-82
2022/09/15 04:16:40;;;;;;;15.53;6.47;;;13.70;1.00;;;;;;6027214;23;20559;-85
2022/09/15 04:19:11;;;;;;;10.33;6.30;;;13.70;1.00;;;;;;6052053;23;20399;-82
2022/09/15 04:21:39;;;;;;;14.40;5.80;;;13.70;1.00;;;;;;6050303;23;20763;-86
2022/09/15 04:24:10;;;;;;;14.00;7.90;;;13.60;1.00;;;;;;6051090;23;20439;-82
2022/09/15 04:26:37;;;;;;;14.23;6.87;;;13.60;1.00;;;;;;6048143;23;20430;-83
2022/09/15 04:29:11;;;;;;;15.13;7.03;;;13.60;1.00;;;;;;6037898;23;20472;-82
2022/09/15 04:31:40;;;;;;;14.77;6.67;;;13.60;1.00;;;;;;6043627;23;20518;-82
2022/09/15 04:34:11;;;;;;;12.03;6.00;;;13.60;1.00;;;;;;6033201;23;20434;-83
2022/09/15 04:36:38;;;;;;;13.90;7.60;;;13.70;1.00;;;;;;6034367;23;20447;-82
2022/09/15 04:39:08;;;;;;;16.73;7.27;;;13.70;1.00;;;;;;6035507;23;20431;-81
2022/09/15 04:41:40;;;;;;;16.73;7.67;;;13.70;1.00;;;;;;6032405;23;20746;-82
2022/09/15 04:44:10;;;;;;;13.83;7.20;;;13.70;1.00;;;;;;6043408;23;20525;-83
2022/09/15 04:46:47;;;;;;;22.40;10.50;;;13.70;1.00;;;;;;6042061;23;20407;-82
2022/09/15 04:49:19;;;;;;;22.10;13.10;;;13.70;1.00;;;;;;6043047;23;20444;-79
2022/09/15 04:51:52;;;;;;;13.37;7.17;;;13.70;1.00;;;;;;6039514;23;20434;-79
2022/09/15 04:54:21;;;;;;;13.20;6.70;;;13.60;1.00;;;;;;6068613;23;20444;-82
2022/09/15 04:56:54;;;;;;;20.57;6.47;;;13.60;1.00;;;;;;6054431;23;20413;-85
2022/09/15 04:59:22;;;;;;;15.80;7.20;;;13.60;1.00;;;;;;6025630;23;20437;-83
2022/09/15 05:02:00;;;;;;;13.70;6.40;;;13.60;1.00;;;;;;6053260;23;20423;-88
2022/09/15 05:04:33;;;;;;;15.93;7.30;;;13.60;1.00;;;;;;6026551;23;20418;-81
2022/09/15 05:07:01;;;;;;;11.93;6.40;;;13.60;1.00;;;;;;6059536;23;20385;-85
2022/09/15 05:09:32;;;;;;;17.70;7.93;;;13.60;1.00;;;;;;6038709;23;20492;-80
2022/09/15 05:12:03;;;;;;;10.10;6.30;;;13.50;1.00;;;;;;6030212;23;20425;-80
2022/09/15 05:14:32;;;;;;;15.13;7.67;;;13.50;1.00;;;;;;6049508;23;20479;-81
2022/09/15 05:16:59;;;;;;;15.53;7.10;;;13.60;1.00;;;;;;6015941;23;20549;-81
2022/09/15 05:19:32;;;;;;;13.73;7.40;;;13.60;1.00;;;;;;6034065;23;20407;-82
2022/09/15 05:22:00;;;;;;;13.30;6.87;;;13.60;1.00;;;;;;6024298;23;20437;-81
2022/09/15 05:24:32;;;;;;;11.87;6.57;;;13.60;1.00;;;;;;6023177;23;20411;-83
2022/09/15 05:27:02;;;;;;;16.20;7.30;;;13.60;1.00;;;;;;6015193;23;20375;-80
2022/09/15 05:29:30;;;;;;;14.70;8.53;;;13.60;1.00;;;;;;6002046;23;20511;-81
2022/09/15 05:32:03;;;;;;;15.20;7.13;;;13.60;1.00;;;;;;6046360;23;20456;-86
2022/09/15 05:34:33;;;;;;;15.23;9.07;;;13.70;1.00;;;;;;6028905;23;20413;-82
2022/09/15 05:37:00;;;;;;;14.20;8.00;;;13.70;1.00;;;;;;6034618;23;20495;-80
2022/09/15 05:39:30;;;;;;;14.10;7.37;;;13.70;1.00;;;;;;6024695;23;20430;-80
2022/09/15 05:41:58;;;;;;;11.77;6.60;;;13.70;1.00;;;;;;6023937;23;21186;-83
2022/09/15 05:44:32;;;;;;;13.17;6.70;;;13.70;1.00;;;;;;6011636;23;20411;-82
2022/09/15 05:46:58;;;;;;;11.07;6.57;;;13.80;1.00;;;;;;6026016;23;20535;-82
2022/09/15 05:49:42;;;;;;;16.13;7.43;;;13.80;1.00;;;;;;6024298;23;20434;-81
2022/09/15 05:52:08;;;;;;;14.27;7.20;;;13.80;1.00;;;;;;6020965;23;20432;-82
2022/09/15 05:54:40;;;;;;;10.73;6.70;;;13.80;1.00;;;;;;6021260;23;20430;-78
2022/09/15 05:57:07;;;;;;;15.40;7.73;;;13.80;1.00;;;;;;6014482;23;20450;-77
2022/09/15 05:59:42;;;;;;;15.13;6.40;;;13.80;1.00;;;;;;6020928;23;20912;-81
2022/09/15 06:02:10;;;;;;;18.70;7.37;;;13.90;1.00;;;;;;6040757;23;20477;-81
2022/09/15 06:04:37;;;;;;;12.37;5.83;;;13.90;1.00;;;;;;6031092;23;20390;-82
2022/09/15 06:07:12;;;;;;;16.17;5.93;;;14.00;1.00;;;;;;6013446;23;20394;-80
2022/09/15 06:09:41;;;;;;;15.83;7.37;;;14.10;1.00;;;;;;6030472;23;20449;-83
2022/09/15 06:12:12;;;;;;;12.23;5.60;;;14.20;1.00;;;;;;6053712;23;20386;-83
2022/09/15 06:14:44;;;;;;;12.03;5.87;;;14.40;1.00;;;;;;6035399;23;20408;-83
2022/09/15 06:17:22;;;;;;;15.93;5.70;;;14.50;1.00;;;;;;6041653;23;20427;-81
2022/09/15 06:19:51;;;;;;;11.27;4.57;;;14.60;1.00;;;;;;6043096;23;20464;-83
2022/09/15 06:22:21;;;;;;;10.00;4.57;;;14.60;1.00;;;;;;6053679;23;20417;-80
2022/09/15 06:24:54;;;;;;;13.50;6.63;;;14.60;1.00;;;;;;6018538;23;20997;-80
2022/09/15 06:27:21;;;;;;;16.73;6.83;;;14.70;1.00;;;;;;6022541;23;20489;-80
2022/09/15 06:29:51;;;;;;;11.17;5.47;;;14.80;1.00;;;;;;6033234;23;20423;-80
2022/09/15 06:32:19;;;;;;;8.43;3.83;;;15.00;1.00;;;;;;6021027;23;20791;-80
2022/09/15 06:34:50;;;;;;;11.93;5.00;;;15.10;1.00;;;;;;6051653;23;20403;-82
2022/09/15 06:37:16;;;;;;;12.93;4.40;;;15.10;1.00;;;;;;6053987;23;20498;-82
2022/09/15 06:39:45;;;;;;;11.83;4.27;;;15.20;1.00;;;;;;6039472;23;20457;-81
2022/09/15 06:42:14;;;;;;;12.80;4.70;;;15.30;1.00;;;;;;6029769;23;20422;-83
2022/09/15 06:44:41;;;;;;;8.53;3.80;;;15.50;1.00;;;;;;6037459;23;21277;-80
2022/09/15 06:47:15;;;;;;;11.47;4.43;;;15.70;1.00;;;;;;6037268;23;20423;-81
2022/09/15 06:49:41;;;;;;;9.53;4.60;;;15.80;1.00;;;;;;6037986;23;20481;-83
2022/09/15 06:52:10;;;;;;;10.57;4.23;;;15.80;1.00;;;;;;6058248;23;20409;-82
2022/09/15 06:54:37;;;;;;;8.70;4.47;;;15.80;1.00;;;;;;6053202;23;20553;-84
2022/09/15 06:57:10;;;;;;;11.37;4.60;;;15.90;1.00;;;;;;6055475;23;20513;-81
2022/09/15 06:59:43;;;;;;;12.20;4.37;;;16.10;1.00;;;;;;6042475;23;20462;-82
2022/09/15 07:02:12;;;;;;;10.63;4.00;;;16.30;1.00;;;;;;6040418;23;20395;-80
2022/09/15 07:04:43;;;;;;;12.03;4.83;;;16.30;1.00;;;;;;6038016;23;20383;-84
2022/09/15 07:07:10;;;;;;;9.57;4.57;;;16.30;1.00;;;;;;6044737;23;20461;-80
2022/09/15 07:09:40;;;;;;;10.40;4.10;;;16.40;1.00;;;;;;6008101;23;20939;-83
2022/09/15 07:12:07;;;;;;;9.70;4.90;;;16.50;1.00;;;;;;6025841;23;20478;-83
2022/09/15 07:14:36;;;;;;;10.03;4.00;;;16.60;1.00;;;;;;6024713;23;20418;-81
2022/09/15 07:17:03;;;;;;;10.73;4.80;;;16.60;1.00;;;;;;6030508;23;20468;-80
2022/09/15 07:19:34;;;;;;;8.53;3.73;;;16.70;1.00;;;;;;6033760;23;21334;-83
2022/09/15 07:22:04;;;;;;;10.77;3.93;;;16.80;1.00;;;;;;6033755;23;21037;-83
2022/09/15 07:24:31;;;;;;;11.70;3.90;;;16.70;1.00;;;;;;6024560;23;20434;-82
2022/09/15 07:26:59;;;;;;;13.90;4.63;;;16.80;1.00;;;;;;6057920;23;21156;-83
2022/09/15 07:29:30;;;;;;;11.37;4.60;;;16.80;1.00;;;;;;6046299;23;20429;-82
2022/09/15 07:32:01;;;;;;;8.60;4.07;;;16.80;1.00;;;;;;6056922;23;21077;-83
2022/09/15 07:34:33;;;;;;;10.67;4.13;;;16.90;1.00;;;;;;6021034;23;20418;-85
2022/09/15 07:37:12;;;;;;;11.00;4.07;;;16.90;1.00;;;;;;6036434;23;20480;-83
2022/09/15 07:39:41;;;;;;;12.27;4.17;;;17.00;1.00;;;;;;6045294;23;20446;-85
2022/09/15 07:42:09;;;;;;;10.30;4.50;;;16.90;1.00;;;;;;6045233;23;20447;-81
2022/09/15 07:44:36;;;;;;;10.83;4.30;;;17.00;1.00;;;;;;6037491;23;20435;-83
2022/09/15 07:47:03;;;;;;;12.70;5.00;;;16.90;1.00;;;;;;6034524;23;21198;-83
2022/09/15 07:49:30;;;;;;;10.13;4.40;;;16.90;1.00;;;;;;6043795;23;20453;-83
2022/09/15 07:52:02;;;;;;;9.63;4.80;;;16.90;1.00;;;;;;6042713;23;20396;-82
2022/09/15 07:54:32;;;;;;;11.90;4.33;;;16.90;1.00;;;;;;6031912;23;20433;-82
2022/09/15 07:57:00;;;;;;;9.47;4.40;;;16.90;1.00;;;;;;6042186;23;20476;-82
2022/09/15 07:59:33;;;;;;;11.30;5.40;;;16.90;1.00;;;;;;6020754;23;20918;-82
2022/09/15 08:02:01;;;;;;;10.40;5.30;;;17.10;1.00;;;;;;6015318;23;20457;-84
2022/09/15 08:04:32;;;;;;;8.10;4.10;;;17.30;1.00;;;;;;6035808;23;20440;-82
2022/09/15 08:07:03;;;;;;;8.00;3.80;;;17.40;1.00;;;;;;6048819;23;20497;-83
2022/09/15 08:09:40;;;;;;;8.27;3.43;;;17.40;1.00;;;;;;6051669;23;20438;-82
2022/09/15 08:12:09;;;;;;;8.93;3.50;;;17.40;1.00;;;;;;6058950;23;20448;-83
2022/09/15 08:14:38;;;;;;;10.77;4.30;;;17.50;1.00;;;;;;6052425;23;20931;-83
2022/09/15 08:17:05;;;;;;;8.77;3.50;;;17.50;1.00;;;;;;6045227;23;21101;-82
2022/09/15 08:19:36;;;;;;;8.37;3.53;;;17.50;1.00;;;;;;6052273;23;20466;-83
2022/09/15 08:22:04;;;;;;;9.90;3.63;;;17.60;1.00;;;;;;6049926;23;20421;-82
2022/09/15 08:24:31;;;;;;;8.37;4.23;;;17.70;1.00;;;;;;6052097;23;20456;-83
2022/09/15 08:27:01;;;;;;;9.80;3.73;;;17.80;1.00;;;;;;6071527;23;21216;-83
2022/09/15 08:29:36;;;;;;;12.93;4.23;;;18.00;1.00;;;;;;6024332;23;20439;-83
2022/09/15 08:32:03;;;;;;;9.67;4.10;;;18.20;1.00;;;;;;6047550;23;20418;-84
2022/09/15 08:34:31;;;;;;;9.67;3.43;;;18.30;1.00;;;;;;6046536;23;20474;-85
2022/09/15 08:37:03;;;;;;;9.57;4.03;;;18.30;1.00;;;;;;6050234;23;20435;-83
2022/09/15 08:39:49;;;;;;;10.23;3.30;;;18.30;1.00;;;;;;6049249;23;20436;-83
2022/09/15 08:42:25;;;;;;;9.43;4.50;;;18.40;1.00;;;;;;6049641;23;20441;-86
2022/09/15 08:44:59;;;;;;;7.90;3.63;;;18.50;1.00;;;;;;6036189;23;20417;-84
2022/09/15 08:47:33;;;;;;;12.83;4.30;;;18.70;1.00;;;;;;6022234;23;20429;-84
2022/09/15 08:50:09;;;;;;;7.93;3.13;;;19.10;1.00;;;;;;6036697;23;20414;-83
2022/09/15 08:52:48;;;;;;;7.20;3.17;;;19.20;1.00;;;;;;6023052;23;20412;-83
2022/09/15 08:55:22;;;;;;;7.50;3.07;;;19.20;1.00;;;;;;6062946;23;20451;-84
2022/09/15 08:57:52;;;;;;;8.40;3.00;;;19.30;1.00;;;;;;6060213;23;20393;-84
2022/09/15 09:00:20;;;;;;;7.30;2.90;;;19.10;1.00;;;;;;6050394;23;20425;-82
2022/09/15 09:03:04;;;;;;;7.50;2.43;;;19.10;1.00;;;;;;6050850;23;20423;-81
2022/09/15 09:05:44;;;;;;;7.43;2.50;;;18.90;1.00;;;;;;6033889;23;20454;-83
2022/09/15 09:08:32;;;;;;;9.90;3.10;;;18.80;1.00;;;;;;6028567;23;20387;-83
2022/09/15 09:11:10;;;;;;;11.27;3.20;;;18.90;1.00;;;;;;6025876;23;20554;-83
2022/09/15 09:13:45;;;;;;;8.00;2.30;;;18.90;1.00;;;;;;6036075;23;20927;-83
2022/09/15 09:16:31;;;;;;;8.67;2.40;;;18.80;1.00;;;;;;6034922;23;20498;-82
2022/09/15 09:19:08;;;;;;;11.00;2.20;;;18.80;1.00;;;;;;6026397;23;20434;-83
2022/09/15 09:21:38;;;;;;;9.97;2.50;;;18.80;1.00;;;;;;6052077;23;20446;-82
2022/09/15 09:24:11;;;;;;;9.80;3.00;;;18.60;1.00;;;;;;6050788;23;20451;-83
2022/09/15 09:26:42;;;;;;;10.67;2.53;;;18.60;1.00;;;;;;6051067;23;20402;-82
2022/09/15 09:29:18;;;;;;;8.30;2.50;;;18.50;1.00;;;;;;6052633;23;20445;-82
2022/09/15 09:31:49;;;;;;;10.70;2.90;;;18.50;1.00;;;;;;6027830;23;20398;-84
2022/09/15 09:34:24;;;;;;;9.47;2.70;;;18.60;1.00;;;;;;6038091;23;20422;-82
2022/09/15 09:36:59;;;;;;;7.23;2.93;;;18.90;1.00;;;;;;6030372;23;20408;-82
2022/09/15 09:39:28;;;;;;;9.20;2.40;;;19.20;1.00;;;;;;6051668;23;20429;-84
2022/09/15 09:42:01;;;;;;;7.50;1.90;;;19.50;1.00;;;;;;6031411;23;21105;-84
2022/09/15 09:44:30;;;;;;;8.03;3.13;;;19.90;1.00;;;;;;6019266;23;21087;-84
2022/09/15 09:47:04;;;;;;;8.00;2.50;;;20.30;1.00;;;;;;6037697;23;20408;-84
2022/09/15 09:49:45;;;;;;;6.43;1.90;;;20.60;1.00;;;;;;6020725;23;20397;-82
2022/09/15 09:52:12;;;;;;;10.20;2.80;;;20.50;1.00;;;;;;6032084;23;20897;-83
2022/09/15 09:54:44;;;;;;;8.90;2.37;;;20.30;1.00;;;;;;6025970;23;20461;-84
2022/09/15 09:57:30;;;;;;;6.90;1.90;;;20.20;1.00;;;;;;6042392;23;20420;-81
2022/09/15 09:59:58;;;;;;;9.60;2.40;;;20.30;1.00;;;;;;6036688;23;20429;-83
2022/09/15 10:02:30;;;;;;;8.83;2.40;;;20.50;1.00;;;;;;6038571;23;20473;-81
2022/09/15 10:05:25;;;;;;;9.90;2.13;;;20.80;1.00;;;;;;6025705;23;20382;-83
2022/09/15 10:08:05;;;;;;;5.97;1.60;;;21.20;1.00;;;;;;6032798;23;20508;-85
2022/09/15 10:10:32;;;;;;;6.40;1.70;;;21.40;1.00;;;;;;6040433;23;20483;-82
2022/09/15 10:13:03;;;;;;;7.73;2.00;;;21.30;1.00;;;;;;6037237;23;20476;-85
2022/09/15 10:15:33;;;;;;;8.33;2.10;;;21.50;1.00;;;;;;6024849;23;20406;-82
2022/09/15 10:18:01;;;;;;;9.60;2.30;;;21.90;1.00;;;;;;6033978;23;20399;-81
2022/09/15 10:20:32;;;;;;;8.37;2.00;;;22.10;1.00;;;;;;6050151;23;20399;-82
2022/09/15 10:23:04;;;;;;;9.10;2.47;;;22.80;1.00;;;;;;6042189;23;20427;-83
2022/09/15 10:25:35;;;;;;;8.23;2.30;;;23.70;1.00;;;;;;6037597;23;20393;-82
2022/09/15 10:28:12;;;;;;;8.30;1.63;;;23.70;1.00;;;;;;6040200;23;20622;-84
2022/09/15 10:31:03;;;;;;;8.40;2.70;;;23.00;1.00;;;;;;6036485;23;20485;-83
2022/09/15 10:33:35;;;;;;;6.07;1.93;;;22.30;1.00;;;;;;6035295;23;20394;-82
2022/09/15 10:36:05;;;;;;;6.97;2.10;;;21.90;1.00;;;;;;6031480;23;20436;-84
2022/09/15 10:38:45;;;;;;;6.87;2.47;;;21.50;1.00;;;;;;6035611;23;20422;-82
2022/09/15 10:41:21;;;;;;;9.07;2.07;;;21.40;1.00;;;;;;6032841;23;20378;-89
2022/09/15 10:44:09;;;;;;;8.90;2.30;;;21.50;1.00;;;;;;6046772;23;20398;-87
2022/09/15 10:46:53;;;;;;;8.50;3.37;;;21.50;1.00;;;;;;6040352;23;20432;-92
2022/09/15 10:49:40;;;;;;;7.30;1.87;;;23.50;1.00;;;;;;6039802;23;20506;-82
2022/09/15 10:52:14;;;;;;;6.70;1.80;;;24.70;1.00;;;;;;6068155;23;20395;-90
2022/09/15 10:55:00;;;;;;;5.53;1.40;;;25.60;1.00;;;;;;6084669;23;20437;-92
2022/09/15 10:57:43;;;;;;;7.10;1.80;;;25.70;1.00;;;;;;6083893;23;21261;-90
2022/09/15 11:00:16;;;;;;;6.73;1.57;;;26.30;1.00;;;;;;6070049;23;20417;-87
2022/09/15 11:03:06;;;;;;;5.77;2.10;;;27.30;1.00;;;;;;6068329;23;20485;-91
2022/09/15 11:08:49;;;;;;;8.27;1.50;;;26.10;1.00;;;;;;6084661;23;20393;-87
2022/09/15 11:11:29;;;;;;;4.83;1.20;;;24.80;1.00;;;;;;6078781;23;20520;-83
2022/09/15 11:14:09;;;;;;;5.60;1.70;;;23.80;1.00;;;;;;6080111;23;20477;-86
2022/09/15 11:16:56;;;;;;;10.63;2.40;;;22.90;1.00;;;;;;6036341;23;20445;-79
2022/09/15 11:19:41;;;;;;;4.87;1.57;;;22.40;1.00;;;;;;6071986;23;20619;-80
2022/09/15 11:22:13;;;;;;;9.23;2.33;;;22.10;1.00;;;;;;6057701;23;20421;-79
2022/09/15 11:24:44;;;;;;;6.00;1.97;;;21.70;1.00;;;;;;6056365;23;20838;-80
2022/09/15 11:27:19;;;;;;;6.73;2.00;;;22.10;1.00;;;;;;6074709;23;20441;-80
2022/09/15 11:30:05;;;;;;;6.83;1.73;;;22.20;1.00;;;;;;6058276;23;20478;-81
2022/09/15 11:32:41;;;;;;;6.17;1.73;;;22.70;1.00;;;;;;6072720;23;20493;-82
2022/09/15 11:35:37;;;;;;;6.53;1.67;;;23.90;1.00;;;;;;6071135;23;20891;-82
2022/09/15 11:38:27;;;;;;;6.17;1.50;;;24.50;1.00;;;;;;6048715;23;20476;-80
2022/09/15 11:41:04;;;;;;;6.80;1.83;;;23.90;1.00;;;;;;6070589;23;20410;-80
2022/09/15 11:43:35;;;;;;;6.50;1.63;;;24.30;1.00;;;;;;6074460;23;20428;-79
2022/09/15 11:46:06;;;;;;;6.77;1.50;;;24.50;1.00;;;;;;6075139;23;20421;-81
2022/09/15 11:48:43;;;;;;;7.07;1.83;;;24.70;1.00;;;;;;6035272;23;20434;-80
2022/09/15 11:51:13;;;;;;;6.93;1.90;;;24.30;1.00;;;;;;6049035;23;20405;-80
2022/09/15 11:53:49;;;;;;;11.47;6.97;;;23.40;1.00;;;;;;6072530;23;20414;-81
2022/09/15 11:56:23;;;;;;;7.70;1.33;;;22.40;1.00;;;;;;6057865;23;20447;-81
2022/09/15 11:59:03;;;;;;;5.90;1.80;;;21.50;1.00;;;;;;6074777;23;20397;-79
2022/09/15 12:01:34;;;;;;;8.30;1.93;;;20.90;1.00;;;;;;6045517;23;20433;-81
2022/09/15 12:04:05;;;;;;;9.40;1.63;;;20.30;1.00;;;;;;6060282;23;21164;-79
2022/09/15 12:06:37;;;;;;;6.70;2.07;;;20.00;1.00;;;;;;6072706;23;20402;-80
2022/09/15 12:09:11;;;;;;;8.03;2.70;;;19.60;1.00;;;;;;6073094;23;20393;-80
2022/09/15 12:11:42;;;;;;;6.13;1.93;;;19.60;1.00;;;;;;6071350;23;20483;-79
2022/09/15 12:14:15;;;;;;;5.80;2.00;;;19.60;1.00;;;;;;6074439;23;20410;-78
2022/09/15 12:16:47;;;;;;;7.23;1.67;;;19.60;1.00;;;;;;6073661;23;20415;-80
2022/09/15 12:19:21;;;;;;;5.30;1.63;;;20.20;1.00;;;;;;6073663;23;20527;-81
2022/09/15 12:21:54;;;;;;;10.43;2.87;;;21.00;1.00;;;;;;6071444;23;20429;-82
2022/09/15 12:24:44;;;;;;;7.10;2.17;;;21.50;1.00;;;;;;6070482;23;20536;-83
2022/09/15 12:27:15;;;;;;;7.13;2.30;;;21.50;1.00;;;;;;6074443;23;20397;-83
2022/09/15 12:29:48;;;;;;;6.53;2.00;;;21.10;1.00;;;;;;6079429;23;20445;-81
2022/09/15 12:32:21;;;;;;;7.10;1.90;;;20.70;1.00;;;;;;6076370;23;20473;-81
2022/09/15 12:35:07;;;;;;;9.10;3.00;;;20.30;1.00;;;;;;6075323;23;20422;-82
2022/09/15 12:37:42;;;;;;;7.70;2.67;;;20.00;1.00;;;;;;6076678;23;20457;-83
2022/09/15 12:40:33;;;;;;;10.00;5.00;;;21.80;1.00;;;;;;6080140;23;20444;-82
2022/09/15 12:43:07;;;;;;;6.40;1.80;;;24.30;1.00;;;;;;6078062;23;20431;-81
2022/09/15 12:45:35;;;;;;;5.40;2.07;;;25.70;1.00;;;;;;6075481;23;20454;-82
2022/09/15 12:48:14;;;;;;;15.23;11.53;;;26.70;1.00;;;;;;6073456;23;20934;-77
2022/09/15 12:50:44;;;;;;;7.07;2.07;;;28.00;1.00;;;;;;6073120;23;20441;-83
2022/09/15 12:53:19;;;;;;;6.03;1.73;;;28.90;1.00;;;;;;6074321;23;20421;-79
2022/09/15 12:55:54;;;;;;;8.60;2.30;;;29.50;1.00;;;;;;6074584;23;20432;-79
2022/09/15 12:58:29;;;;;;;6.90;1.67;;;29.40;1.00;;;;;;6073941;23;20437;-82
2022/09/15 13:01:36;;;;;;;6.00;1.60;;;29.80;1.00;;;;;;6077026;23;20453;-80
2022/09/15 13:04:45;;;;;;;6.13;1.77;;;28.60;1.00;;;;;;6078096;23;20449;-78
2022/09/15 13:07:38;;;;;;;6.87;2.00;;;26.90;1.00;;;;;;6074247;23;20911;-82
2022/09/15 13:10:31;;;;;;;6.63;1.80;;;25.00;1.00;;;;;;6076755;23;20437;-82
2022/09/15 13:13:37;;;;;;;7.73;1.70;;;23.60;1.00;;;;;;6082643;23;20459;-86
2022/09/15 13:16:14;;;;;;;9.17;2.00;;;22.50;1.00;;;;;;5971886;23;20474;-87
2022/09/15 13:18:47;;;;;;;6.10;1.90;;;22.40;1.00;;;;;;6076264;23;20414;-85
2022/09/15 13:21:19;;;;;;;6.83;2.20;;;23.00;1.00;;;;;;6086650;23;20453;-84
2022/09/15 13:23:51;;;;;;;9.23;2.10;;;23.50;1.00;;;;;;6081633;23;20491;-83
2022/09/15 13:26:23;;;;;;;7.30;1.80;;;23.80;1.00;;;;;;6086449;23;20752;-84
2022/09/15 13:28:53;;;;;;;6.60;2.03;;;23.80;1.00;;;;;;6081888;23;20410;-84
2022/09/15 13:31:31;;;;;;;6.77;1.77;;;23.80;1.00;;;;;;6085923;23;20394;-86